createdAt,value
2022-12-19T00:01:02.810Z,7.32
2022-12-19T00:03:29.424Z,8.10
2022-12-19T00:05:56.343Z,8.45
2022-12-19T00:08:22.767Z,9.50
2022-12-19T00:10:56.413Z,8.00
2022-12-19T00:13:23.063Z,8.32
2022-12-19T00:15:49.647Z,9.05
2022-12-19T00:18:16.087Z,10.15
2022-12-19T00:20:42.456Z,8.98
2022-12-19T00:23:08.906Z,9.48
2022-12-19T00:25:35.380Z,7.78
2022-12-19T00:28:05.112Z,8.20
2022-12-19T00:30:32.052Z,8.82
2022-12-19T00:32:58.646Z,8.50
2022-12-19T00:35:25.112Z,9.05
2022-12-19T00:37:51.574Z,8.13
2022-12-19T00:40:18.209Z,8.05
2022-12-19T00:42:48.683Z,7.70
2022-12-19T00:45:18.279Z,8.32
2022-12-19T00:47:44.802Z,7.40
2022-12-19T00:50:11.175Z,9.13
2022-12-19T00:52:37.582Z,9.05
2022-12-19T00:55:04.431Z,8.63
2022-12-19T00:57:35.103Z,7.57
2022-12-19T01:00:01.493Z,8.73
2022-12-19T01:02:28.010Z,8.10
2022-12-19T01:04:54.457Z,8.50
2022-12-19T01:07:20.926Z,8.63
2022-12-19T01:09:47.379Z,8.00
2022-12-19T01:12:33.836Z,8.73
2022-12-19T01:15:04.424Z,7.70
2022-12-19T01:17:34.681Z,7.72
2022-12-19T01:20:11.515Z,7.72
2022-12-19T01:22:38.016Z,8.40
2022-12-19T01:25:04.739Z,7.28
2022-12-19T01:27:31.106Z,8.02
2022-12-19T01:29:57.547Z,6.90
2022-12-19T01:32:24.047Z,8.35
2022-12-19T01:34:50.471Z,8.80
2022-12-19T01:37:16.917Z,7.78
2022-12-19T01:39:43.371Z,8.07
2022-12-19T01:42:15.301Z,7.88
2022-12-19T01:45:16.499Z,8.50
2022-12-19T01:47:51.206Z,8.45
2022-12-19T01:50:26.023Z,9.70
2022-12-19T01:52:53.087Z,8.48
2022-12-19T01:55:20.270Z,9.45
2022-12-19T01:57:47.111Z,9.60
2022-12-19T02:00:13.732Z,9.25
2022-12-19T02:02:45.057Z,8.85
2022-12-19T02:05:11.806Z,9.70
2022-12-19T02:07:38.700Z,9.85
2022-12-19T02:10:05.304Z,9.50
2022-12-19T02:12:34.340Z,9.70
2022-12-19T02:15:02.861Z,8.90
2022-12-19T02:17:45.272Z,9.77
2022-12-19T02:20:30.802Z,9.52
2022-12-19T02:23:09.616Z,9.45
2022-12-19T02:25:47.827Z,8.98
2022-12-19T02:28:21.903Z,10.90
2022-12-19T02:31:15.479Z,9.68
2022-12-19T02:33:50.127Z,9.80
2022-12-19T02:36:24.582Z,10.18
2022-12-19T02:38:51.063Z,10.48
2022-12-19T02:41:27.164Z,10.27
2022-12-19T02:43:58.811Z,11.18
2022-12-19T02:46:25.523Z,10.98
2022-12-19T02:48:52.524Z,10.38
2022-12-19T02:51:21.446Z,11.05
2022-12-19T02:53:48.485Z,11.05
2022-12-19T02:56:27.396Z,10.77
2022-12-19T02:58:56.706Z,9.68
2022-12-19T03:01:31.092Z,9.70
2022-12-19T03:04:14.538Z,9.32
2022-12-19T03:06:45.558Z,9.98
2022-12-19T03:09:13.507Z,9.20
2022-12-19T03:11:41.579Z,9.50
2022-12-19T03:14:13.846Z,9.98
2022-12-19T03:16:40.822Z,9.95
2022-12-19T03:19:12.028Z,9.02
2022-12-19T03:21:45.202Z,9.55
2022-12-19T03:24:12.298Z,9.95
2022-12-19T03:26:45.199Z,9.95
2022-12-19T03:29:15.011Z,8.90
2022-12-19T03:31:42.382Z,10.65
2022-12-19T03:34:35.419Z,9.90
2022-12-19T03:37:03.960Z,9.25
2022-12-19T03:39:31.344Z,8.70
2022-12-19T03:42:17.363Z,10.10
2022-12-19T03:44:43.776Z,10.20
2022-12-19T03:47:10.343Z,9.55
2022-12-19T03:49:37.469Z,10.77
2022-12-19T03:52:22.906Z,9.30
2022-12-19T03:54:52.459Z,10.32
2022-12-19T04:00:11.471Z,7.97
2022-12-19T04:02:38.635Z,9.88
2022-12-19T04:05:09.012Z,9.88
2022-12-19T04:07:36.696Z,9.85
2022-12-19T04:10:05.609Z,9.10
2022-12-19T04:12:35.794Z,11.25
2022-12-19T04:15:02.359Z,9.57
2022-12-19T04:17:40.709Z,9.35
2022-12-19T04:20:09.479Z,9.55
2022-12-19T04:22:38.363Z,8.98
2022-12-19T04:25:06.545Z,9.60
2022-12-19T04:27:34.011Z,9.73
2022-12-19T04:30:01.221Z,9.82
2022-12-19T04:32:28.689Z,10.27
2022-12-19T04:34:55.212Z,10.00
2022-12-19T04:37:21.653Z,9.55
2022-12-19T04:39:48.060Z,9.32
2022-12-19T04:42:14.406Z,8.57
2022-12-19T04:44:40.862Z,8.52
2022-12-19T04:47:07.323Z,9.98
2022-12-19T04:49:33.945Z,8.65
2022-12-19T04:52:00.354Z,9.63
2022-12-19T04:54:26.849Z,9.13
2022-12-19T04:56:54.034Z,9.50
2022-12-19T04:59:20.394Z,9.68
2022-12-19T05:01:46.906Z,9.40
2022-12-19T05:04:13.410Z,9.23
2022-12-19T05:06:39.793Z,8.55
2022-12-19T05:09:06.216Z,9.38
2022-12-19T05:11:32.697Z,10.23
2022-12-19T05:13:59.711Z,9.88
2022-12-19T05:16:26.313Z,8.65
2022-12-19T05:18:53.623Z,9.68
2022-12-19T05:21:21.263Z,9.27
2022-12-19T05:23:47.770Z,9.98
2022-12-19T05:26:14.208Z,9.18
2022-12-19T05:28:41.061Z,9.50
2022-12-19T05:31:07.464Z,10.02
2022-12-19T05:33:34.117Z,9.07
2022-12-19T05:36:00.991Z,9.70
2022-12-19T05:38:27.804Z,8.98
2022-12-19T05:40:54.287Z,9.68
2022-12-19T05:43:21.053Z,10.20
2022-12-19T05:45:47.529Z,8.57
2022-12-19T05:48:13.957Z,9.32
2022-12-19T05:50:40.486Z,10.25
2022-12-19T05:53:07.387Z,9.10
2022-12-19T05:55:34.340Z,8.57
2022-12-19T05:58:00.776Z,9.23
2022-12-19T06:00:27.213Z,9.73
2022-12-19T06:02:54.850Z,9.55
2022-12-19T06:05:21.439Z,9.73
2022-12-19T06:07:48.040Z,8.35
2022-12-19T06:10:14.553Z,8.32
2022-12-19T06:12:40.992Z,8.18
2022-12-19T06:15:07.612Z,9.85
2022-12-19T06:17:34.489Z,9.13
2022-12-19T06:20:00.913Z,10.00
2022-12-19T06:22:27.279Z,8.25
2022-12-19T06:24:53.722Z,8.02
2022-12-19T06:27:20.103Z,9.30
2022-12-19T06:29:46.535Z,8.85
2022-12-19T06:32:13.063Z,7.75
2022-12-19T06:35:03.278Z,9.57
2022-12-19T06:37:26.188Z,8.10
2022-12-19T06:39:52.576Z,8.50
2022-12-19T06:42:24.755Z,8.68
2022-12-19T06:44:55.962Z,7.93
2022-12-19T06:47:23.823Z,8.68
2022-12-19T06:49:50.298Z,8.10
2022-12-19T06:52:17.369Z,8.45
2022-12-19T06:54:43.809Z,9.55
2022-12-19T06:57:10.409Z,8.35
2022-12-19T06:59:36.925Z,8.43
2022-12-19T07:02:32.916Z,8.57
2022-12-19T07:05:03.560Z,8.38
2022-12-19T07:07:30.293Z,7.93
2022-12-19T07:09:56.719Z,8.48
2022-12-19T07:12:23.232Z,8.88
2022-12-19T07:14:53.392Z,9.65
2022-12-19T07:17:20.678Z,9.07
2022-12-19T07:19:47.317Z,10.63
2022-12-19T07:22:13.692Z,8.43
2022-12-19T07:24:40.130Z,9.13
2022-12-19T07:27:08.019Z,9.02
2022-12-19T07:29:34.547Z,9.38
2022-12-19T07:32:01.045Z,9.35
2022-12-19T07:34:27.513Z,9.50
2022-12-19T07:36:53.941Z,9.52
2022-12-19T07:39:20.392Z,9.35
2022-12-19T07:41:46.984Z,9.82
2022-12-19T07:44:13.574Z,10.45
2022-12-19T07:46:40.004Z,10.00
2022-12-19T07:49:06.732Z,9.80
2022-12-19T07:51:33.698Z,9.20
2022-12-19T07:54:00.411Z,9.35
2022-12-19T07:56:27.214Z,9.05
2022-12-19T07:58:54.232Z,9.73
2022-12-19T08:01:20.751Z,9.30
2022-12-19T08:03:47.210Z,9.13
2022-12-19T08:06:13.702Z,8.32
2022-12-19T08:08:40.411Z,9.25
2022-12-19T08:11:10.953Z,8.98
2022-12-19T08:13:42.041Z,9.40
2022-12-19T08:16:12.617Z,9.75
2022-12-19T08:18:39.102Z,9.73
2022-12-19T08:21:07.239Z,9.38
2022-12-19T08:23:33.644Z,10.23
2022-12-19T08:26:04.972Z,9.48
2022-12-19T08:28:32.343Z,8.95
2022-12-19T08:31:00.782Z,9.38
2022-12-19T08:33:27.408Z,10.13
2022-12-19T08:35:53.901Z,10.13
2022-12-19T08:38:20.375Z,9.85
2022-12-19T08:40:51.909Z,10.60
2022-12-19T08:43:18.383Z,10.52
2022-12-19T08:45:45.714Z,10.80
2022-12-19T08:48:12.237Z,9.65
2022-12-19T08:50:38.677Z,11.02
2022-12-19T08:53:05.119Z,10.10
2022-12-19T08:55:31.726Z,10.27
2022-12-19T08:57:58.150Z,11.43
2022-12-19T09:00:24.884Z,9.10
2022-12-19T09:02:52.340Z,10.45
2022-12-19T09:06:05.021Z,9.52
2022-12-19T09:08:06.162Z,9.75
2022-12-19T09:10:32.702Z,8.88
2022-12-19T09:12:59.232Z,8.90
2022-12-19T09:15:25.686Z,9.38
2022-12-19T09:17:52.126Z,9.52
2022-12-19T09:20:23.163Z,9.52
2022-12-19T09:22:50.181Z,10.18
2022-12-19T09:25:16.662Z,10.00
2022-12-19T09:28:17.892Z,10.23
2022-12-19T09:30:29.947Z,10.32
2022-12-19T09:32:57.844Z,11.02
2022-12-19T09:35:28.568Z,10.35
2022-12-19T09:38:00.422Z,10.35
2022-12-19T09:40:28.956Z,11.38
2022-12-19T09:42:55.354Z,10.90
2022-12-19T09:45:41.072Z,10.95
2022-12-19T09:48:12.370Z,11.25
2022-12-19T09:51:06.886Z,10.85
2022-12-19T09:53:40.464Z,11.15
2022-12-19T09:56:12.467Z,11.40
2022-12-19T09:58:46.565Z,10.80
2022-12-19T10:01:25.232Z,10.02
2022-12-19T10:03:59.224Z,11.95
2022-12-19T10:07:11.366Z,10.55
2022-12-19T10:10:35.842Z,10.93
2022-12-19T10:12:38.829Z,11.00
2022-12-19T10:14:52.364Z,10.43
2022-12-19T10:17:25.811Z,9.57
2022-12-19T10:19:52.190Z,11.20
2022-12-19T10:22:31.479Z,11.27
2022-12-19T10:25:06.684Z,10.02
2022-12-19T10:27:59.559Z,11.02
2022-12-19T10:30:27.944Z,10.93
2022-12-19T10:33:19.997Z,10.52
2022-12-19T10:35:53.504Z,10.52
2022-12-19T10:38:29.920Z,12.10
2022-12-19T10:41:15.428Z,11.77
2022-12-19T10:43:54.232Z,11.68
2022-12-19T10:46:41.140Z,10.70
2022-12-19T10:49:18.019Z,11.00
2022-12-19T10:52:04.801Z,9.82
2022-12-19T10:54:37.548Z,10.75
2022-12-19T10:57:22.080Z,9.95
2022-12-19T10:59:55.742Z,11.98
2022-12-19T11:02:41.394Z,11.25
2022-12-19T11:05:26.968Z,10.20
2022-12-19T11:08:08.902Z,11.23
2022-12-19T11:12:03.627Z,10.82
2022-12-19T11:19:05.400Z,10.52
2022-12-19T11:21:48.450Z,11.43
2022-12-19T11:29:34.683Z,10.35
2022-12-19T11:30:05.572Z,10.70
2022-12-19T11:30:25.643Z,10.25
2022-12-19T11:30:25.738Z,11.23
2022-12-19T11:34:06.052Z,11.57
2022-12-19T11:36:47.469Z,10.55
2022-12-19T11:39:20.419Z,11.20
2022-12-19T11:42:10.437Z,12.15
2022-12-19T11:44:49.888Z,11.45
2022-12-19T11:49:44.960Z,10.88
2022-12-19T11:52:29.581Z,10.55
2022-12-19T11:54:58.019Z,11.25
2022-12-19T11:57:25.255Z,11.77
2022-12-19T11:59:53.232Z,11.82
2022-12-19T12:02:25.524Z,12.32
2022-12-19T12:04:55.917Z,11.52
2022-12-19T12:15:16.325Z,11.07
2022-12-19T12:22:42.873Z,11.13
2022-12-19T12:29:22.889Z,11.82
2022-12-19T12:30:51.828Z,10.83
2022-12-19T12:31:31.738Z,11.57
2022-12-19T12:31:46.439Z,10.60
2022-12-19T12:31:57.577Z,11.52
2022-12-19T12:35:33.439Z,12.27
2022-12-19T12:40:06.907Z,11.70
2022-12-19T12:42:33.324Z,12.80
2022-12-19T12:45:00.680Z,10.80
2022-12-19T12:47:28.048Z,11.82
2022-12-19T12:49:56.404Z,10.50
2022-12-19T12:52:35.345Z,10.90
2022-12-19T12:55:03.389Z,11.10
2022-12-19T13:00:17.974Z,10.65
2022-12-19T13:02:46.035Z,11.35
2022-12-19T13:05:23.475Z,11.63
2022-12-19T13:07:54.544Z,12.45
2022-12-19T13:10:25.516Z,11.30
2022-12-19T13:13:00.812Z,11.35
2022-12-19T13:15:27.286Z,11.63
2022-12-19T13:17:53.611Z,11.05
2022-12-19T13:20:29.203Z,10.88
2022-12-19T13:22:58.561Z,11.55
2022-12-19T13:25:27.682Z,11.93
2022-12-19T13:27:58.505Z,12.00
2022-12-19T13:30:25.782Z,11.65
2022-12-19T13:32:52.273Z,11.23
2022-12-19T13:36:37.321Z,11.25
2022-12-19T13:39:59.749Z,11.73
2022-12-19T13:41:43.666Z,9.98
2022-12-19T13:44:10.114Z,10.27
2022-12-19T13:46:42.561Z,12.32
2022-12-19T13:49:19.057Z,11.70
2022-12-19T13:51:50.449Z,10.65
2022-12-19T13:54:21.076Z,9.60
2022-12-19T13:56:47.638Z,10.30
2022-12-19T13:59:14.521Z,10.57
2022-12-19T14:01:42.105Z,9.95
2022-12-19T14:04:15.624Z,10.38
2022-12-19T14:06:43.587Z,10.90
2022-12-19T14:11:34.983Z,10.82
2022-12-19T14:13:44.448Z,9.85
2022-12-19T14:15:24.680Z,9.43
2022-12-19T14:17:51.108Z,9.50
2022-12-19T14:21:36.454Z,9.52
2022-12-19T14:23:14.287Z,9.70
2022-12-19T14:28:14.683Z,9.70
2022-12-19T14:28:41.048Z,9.57
2022-12-19T14:31:11.434Z,9.88
2022-12-19T14:34:04.125Z,9.35
2022-12-19T14:36:30.692Z,8.73
2022-12-19T14:39:22.891Z,9.45
2022-12-19T14:42:31.628Z,8.88
2022-12-19T14:54:02.060Z,8.95
2022-12-19T14:54:07.203Z,8.82
2022-12-19T14:54:40.197Z,8.43
2022-12-19T14:57:15.894Z,9.27
2022-12-19T14:59:55.598Z,7.88
2022-12-19T15:02:32.320Z,8.27
2022-12-19T15:05:02.663Z,9.13
2022-12-19T15:07:31.502Z,9.35
2022-12-19T15:11:05.009Z,7.95
2022-12-19T15:14:48.709Z,8.45
2022-12-19T15:16:04.304Z,8.63
2022-12-19T15:18:34.007Z,8.98
2022-12-19T15:21:01.777Z,7.40
2022-12-19T15:23:28.996Z,8.13
2022-12-19T15:26:11.485Z,8.93
2022-12-19T15:28:43.268Z,8.23
2022-12-19T15:31:27.873Z,8.27
2022-12-19T15:36:41.240Z,8.45
2022-12-19T15:39:07.683Z,8.35
2022-12-19T15:41:34.460Z,7.97
2022-12-19T15:44:05.815Z,7.47
2022-12-19T15:46:33.278Z,7.75
2022-12-19T15:48:59.813Z,8.07
2022-12-19T15:51:26.300Z,7.32
2022-12-19T15:53:52.698Z,7.35
2022-12-19T15:56:27.282Z,7.50
2022-12-19T15:58:54.506Z,7.13
2022-12-19T16:01:21.716Z,6.15
2022-12-19T16:03:48.662Z,6.30
2022-12-19T16:06:15.351Z,6.63
2022-12-19T16:08:42.147Z,5.65
2022-12-19T16:11:27.507Z,6.28
2022-12-19T16:13:55.590Z,5.63
2022-12-19T16:16:22.581Z,6.03
2022-12-19T16:18:49.377Z,5.40
2022-12-19T16:21:29.278Z,5.95
2022-12-19T16:23:59.911Z,5.65
2022-12-19T16:26:37.299Z,5.68
2022-12-19T16:29:04.277Z,5.97
2022-12-19T16:31:30.877Z,5.97
2022-12-19T16:33:57.692Z,6.00
2022-12-19T16:36:24.310Z,6.35
2022-12-19T16:38:50.956Z,6.05
2022-12-19T16:41:26.831Z,5.78
2022-12-19T16:43:53.250Z,6.10
2022-12-19T16:46:21.753Z,5.40
2022-12-19T16:48:48.569Z,6.22
2022-12-19T16:51:22.649Z,5.35
2022-12-19T16:53:50.784Z,5.55
2022-12-19T16:56:47.923Z,5.15
2022-12-19T16:59:37.635Z,4.55
2022-12-19T17:02:30.343Z,5.38
2022-12-19T17:04:56.923Z,4.72
2022-12-19T17:07:23.333Z,5.03
2022-12-19T17:09:49.830Z,5.72
2022-12-19T17:12:17.570Z,5.53
2022-12-19T17:14:44.228Z,6.30
2022-12-19T17:17:13.611Z,6.25
2022-12-19T17:19:41.714Z,6.35
2022-12-19T17:22:15.112Z,7.25
2022-12-19T17:24:41.804Z,7.75
2022-12-19T17:27:08.281Z,7.20
2022-12-19T17:29:34.711Z,7.72
2022-12-19T17:32:01.466Z,6.90
2022-12-19T17:34:32.146Z,8.50
2022-12-19T17:37:00.604Z,8.00
2022-12-19T17:39:29.409Z,7.40
2022-12-19T17:41:57.645Z,9.00
2022-12-19T17:44:24.085Z,7.47
2022-12-19T17:46:50.663Z,8.38
2022-12-19T17:49:18.353Z,8.38
2022-12-19T17:51:46.768Z,9.13
2022-12-19T17:54:13.695Z,8.35
2022-12-19T17:56:40.175Z,8.07
2022-12-19T17:59:06.604Z,7.35
2022-12-19T18:01:33.936Z,7.97
2022-12-19T18:04:00.838Z,7.60
2022-12-19T18:06:28.012Z,8.85
2022-12-19T18:08:55.206Z,8.52
2022-12-19T18:11:23.010Z,9.68
2022-12-19T18:13:49.692Z,9.50
2022-12-19T18:16:20.884Z,10.20
2022-12-19T18:18:47.661Z,9.55
2022-12-19T18:21:15.343Z,10.10
2022-12-19T18:23:42.199Z,9.07
2022-12-19T18:26:09.871Z,8.18
2022-12-19T18:28:36.306Z,8.93
2022-12-19T18:31:16.490Z,7.93
2022-12-19T18:33:44.025Z,7.70
2022-12-19T18:36:16.270Z,9.10
2022-12-19T18:38:42.693Z,7.78
2022-12-19T18:41:10.791Z,8.07
2022-12-19T18:43:37.337Z,8.23
2022-12-19T18:46:03.962Z,7.60
2022-12-19T18:48:34.345Z,7.80
2022-12-19T18:51:00.978Z,7.43
2022-12-19T18:53:37.289Z,7.80
2022-12-19T18:56:05.216Z,7.35
2022-12-19T18:58:34.490Z,7.07
2022-12-19T19:01:01.819Z,6.18
2022-12-19T19:03:30.355Z,7.03
2022-12-19T19:06:00.106Z,6.60
2022-12-19T19:08:32.644Z,6.57
2022-12-19T19:10:59.610Z,5.95
2022-12-19T19:13:26.768Z,6.47
2022-12-19T19:15:55.054Z,6.10
2022-12-19T19:18:24.304Z,5.95
2022-12-19T19:20:54.381Z,6.25
2022-12-19T19:23:27.687Z,5.68
2022-12-19T19:25:54.074Z,5.88
2022-12-19T19:28:20.547Z,5.18
2022-12-19T19:30:47.144Z,5.20
2022-12-19T19:33:16.681Z,4.70
2022-12-19T19:38:10.015Z,3.75
2022-12-19T19:40:37.033Z,4.00
2022-12-19T19:43:04.024Z,4.75
2022-12-19T19:45:30.594Z,4.03
2022-12-19T19:47:57.004Z,3.78
2022-12-19T19:50:24.624Z,4.00
2022-12-19T19:52:51.220Z,3.78
2022-12-19T19:55:17.815Z,4.07
2022-12-19T19:57:44.666Z,3.85
2022-12-19T20:00:11.495Z,3.97
2022-12-19T20:02:38.126Z,3.65
2022-12-19T20:05:04.782Z,4.28
2022-12-19T20:07:31.291Z,3.95
2022-12-19T20:09:57.778Z,3.75
2022-12-19T20:12:24.322Z,3.13
2022-12-19T20:14:50.847Z,3.58
2022-12-19T20:17:17.335Z,3.92
2022-12-19T20:19:43.817Z,3.22
2022-12-19T20:22:10.412Z,5.15
2022-12-19T20:24:36.839Z,3.60
2022-12-19T20:27:03.287Z,3.58
2022-12-19T20:29:30.364Z,3.20
2022-12-19T20:31:56.859Z,2.80
2022-12-19T20:34:26.610Z,2.75
2022-12-19T20:36:53.063Z,3.10
2022-12-19T20:39:22.195Z,4.50
2022-12-19T20:41:52.332Z,5.20
2022-12-19T20:44:24.165Z,4.10
2022-12-19T20:46:51.228Z,3.00
2022-12-19T20:49:18.697Z,2.90
2022-12-19T20:51:47.725Z,2.70
2022-12-19T20:54:15.758Z,3.20
2022-12-19T20:56:42.642Z,3.50
2022-12-19T20:59:10.420Z,3.15
2022-12-19T21:01:37.615Z,4.05
2022-12-19T21:04:04.440Z,3.05
2022-12-19T21:06:38.125Z,2.92
2022-12-19T21:09:06.143Z,3.33
2022-12-19T21:11:33.709Z,3.67
2022-12-19T21:14:00.223Z,4.13
2022-12-19T21:16:26.784Z,3.63
2022-12-19T21:18:53.331Z,4.00
2022-12-19T21:21:24.268Z,3.80
2022-12-19T21:23:51.341Z,4.30
2022-12-19T21:26:18.062Z,4.60
2022-12-19T21:28:45.038Z,4.65
2022-12-19T21:31:17.415Z,6.68
2022-12-19T21:33:44.539Z,6.10
2022-12-19T21:36:16.675Z,6.75
2022-12-19T21:38:43.120Z,7.32
2022-12-19T21:41:10.154Z,7.05
2022-12-19T21:43:36.846Z,7.25
2022-12-19T21:46:07.376Z,6.93
2022-12-19T21:48:41.075Z,6.82
2022-12-19T21:51:08.211Z,7.53
2022-12-19T21:53:35.595Z,7.53
2022-12-19T21:56:06.218Z,5.68
2022-12-19T21:58:32.873Z,4.60
2022-12-19T22:01:08.278Z,4.57
2022-12-19T22:03:35.235Z,4.18
2022-12-19T22:06:01.917Z,3.40
2022-12-19T22:08:28.472Z,3.13
2022-12-19T22:10:54.889Z,3.05
2022-12-19T22:13:21.380Z,3.22
2022-12-19T22:15:47.875Z,3.45
2022-12-19T22:18:14.450Z,3.28
2022-12-19T22:20:42.411Z,3.78
2022-12-19T22:23:13.430Z,3.92
2022-12-19T22:25:40.453Z,3.70
2022-12-19T22:28:06.903Z,4.38
2022-12-19T22:30:34.871Z,3.85
2022-12-19T22:33:01.605Z,4.25
2022-12-19T22:35:28.150Z,4.20
2022-12-19T22:37:54.975Z,4.88
2022-12-19T22:40:21.400Z,5.00
2022-12-19T22:42:48.295Z,4.47
2022-12-19T22:45:15.005Z,5.35
2022-12-19T22:47:42.293Z,5.38
2022-12-19T22:50:10.562Z,6.38
2022-12-19T22:52:38.000Z,6.75
2022-12-19T22:55:04.752Z,6.63
2022-12-19T22:57:31.161Z,7.00
2022-12-19T22:59:57.694Z,6.53
2022-12-19T23:02:24.257Z,6.63
2022-12-19T23:04:51.029Z,6.97
2022-12-19T23:07:17.503Z,6.05
2022-12-19T23:09:43.921Z,6.90
2022-12-19T23:12:10.375Z,7.20
2022-12-19T23:14:36.891Z,7.32
2022-12-19T23:17:03.349Z,7.63
2022-12-19T23:19:30.071Z,7.40
2022-12-19T23:21:56.503Z,7.75
2022-12-19T23:24:22.866Z,8.02
2022-12-19T23:26:49.394Z,8.32
2022-12-19T23:29:16.310Z,8.50
2022-12-19T23:31:44.390Z,7.95
2022-12-19T23:34:11.386Z,8.77
2022-12-19T23:39:24.808Z,8.48
2022-12-19T23:41:51.283Z,8.40
2022-12-19T23:44:17.882Z,8.40
2022-12-19T23:46:44.285Z,8.80
2022-12-19T23:49:10.663Z,8.60
2022-12-19T23:51:37.166Z,8.75
2022-12-19T23:54:03.896Z,9.80
2022-12-19T23:56:31.644Z,8.85
2022-12-19T23:58:58.674Z,10.23
